Aviation Digital Data Service (ADDS)

Output produced by METARs form (1835 UTC 16 December 2017)
found at http://www.aviationweather.gov/adds/metars/
 
KLUL 161835Z AUTO 13004KT 10SM CLR 11/M04 A3027 RMK AO2 T01061039
KLUL 161815Z AUTO 15005KT 10SM CLR 11/M02 A3029 RMK AO2 T01071023
KLUL 161755Z AUTO 10005KT 10SM CLR 10/M03 A3029 RMK AO2 T00991027
KLUL 161735Z AUTO 11005KT 10SM CLR 09/M03 A3030 RMK AO2 T00921027
KLUL 161715Z AUTO 11005KT 10SM CLR 08/M02 A3031 RMK AO2 T00831021
KLUL 161655Z AUTO 11005KT 10SM CLR 08/M02 A3033 RMK AO2 T00761022
KLUL 161635Z AUTO 10005KT 10SM CLR 07/M02 A3034 RMK AO2 T00671022
KLUL 161615Z AUTO 10005KT 10SM CLR 06/M02 A3035 RMK AO2 T00601020
KLUL 161555Z AUTO 12006KT 10SM CLR 05/M01 A3034 RMK AO2 T00511014
KLUL 161535Z AUTO 11004KT 10SM CLR 04/M01 A3034 RMK AO2 T00431010
KLUL 161515Z AUTO 12003KT 10SM CLR 04/00 A3034 RMK AO2 T00351003
KLUL 161455Z AUTO 10003KT 10SM CLR 02/00 A3034 RMK AO2 T00241001
KLUL 161435Z AUTO 00000KT 10SM CLR 01/00 A3034 RMK AO2 T00100001
KLUL 161415Z AUTO 00000KT 10SM CLR 00/00 A3033 RMK AO2 T10051005
KLUL 161355Z AUTO 00000KT 10SM CLR M02/M02 A3033 RMK AO2 T10181018
KLUL 161335Z AUTO 00000KT 10SM CLR M02/M02 A3033 RMK AO2 T10211021
KLUL 161315Z AUTO 00000KT 10SM CLR M02/M02 A3032 RMK AO2 T10221022
KLUL 161255Z AUTO 00000KT 10SM CLR M03/M03 A3031 RMK AO2 T10261026
KLUL 161235Z AUTO 00000KT 10SM CLR M02/M02 A3031 RMK AO2 T10251025
KLUL 161215Z AUTO 00000KT 10SM CLR M02/M02 A3030 RMK AO2 T10161016
KLUL 161155Z AUTO 00000KT 10SM CLR M02/M02 A3030 RMK AO2 T10201020
KLUL 161135Z AUTO 00000KT 10SM CLR M02/M02 A3029 RMK AO2 T10231023
KLUL 161115Z AUTO 00000KT 10SM CLR M02/M02 A3029 RMK AO2 T10201020
KLUL 161055Z AUTO 00000KT 10SM CLR M02/M02 A3029 RMK AO2 T10221022
KLUL 161035Z AUTO 00000KT 10SM CLR M02/M02 A3028 RMK AO2 T10161016
KLUL 161015Z AUTO 00000KT 10SM CLR M02/M02 A3027 RMK AO2 T10201020
KLUL 160955Z AUTO 00000KT 10SM CLR M02/M02 A3028 RMK AO2 T10161016
KLUL 160935Z AUTO 00000KT 10SM CLR M01/M01 A3029 RMK AO2 T10111011
KLUL 160915Z AUTO 00000KT 10SM CLR M02/M02 A3028 RMK AO2 T10171017
KLUL 160855Z AUTO 00000KT 10SM CLR M02/M02 A3028 RMK AO2 T10161016
KLUL 160835Z AUTO 00000KT 10SM CLR M02/M02 A3029 RMK AO2 T10201020
KLUL 160815Z AUTO 32003KT 10SM CLR M02/M02 A3028 RMK AO2 T10201020
KLUL 160755Z AUTO 00000KT 10SM CLR M02/M02 A3028 RMK AO2 T10201020
KLUL 160735Z AUTO 34003KT 10SM CLR M02/M02 A3028 RMK AO2 T10191019
KLUL 160715Z AUTO 00000KT 10SM CLR M01/M01 A3029 RMK AO2 T10141014
KLUL 160655Z AUTO 00000KT 10SM CLR M02/M02 A3029 RMK AO2 T10161016
KLUL 160635Z AUTO 00000KT 10SM CLR M02/M02 A3028 RMK AO2 T10201020
KLUL 160615Z AUTO 00000KT 10SM CLR M02/M02 A3029 RMK AO2 T10191019
KLUL 160555Z AUTO 32003KT 10SM CLR M02/M02 A3029 RMK AO2 T10171017
KLUL 160535Z AUTO 00000KT 10SM CLR M02/M02 A3029 RMK AO2 T10161016
KLUL 160515Z AUTO 00000KT 10SM CLR M01/M01 A3029 RMK AO2 T10141014
KLUL 160455Z AUTO 00000KT 10SM CLR M01/M01 A3029 RMK AO2 T10091009
KLUL 160435Z AUTO 00000KT 10SM CLR 00/00 A3029 RMK AO2 T10031003
KLUL 160415Z AUTO 00000KT 10SM CLR M01/M01 A3029 RMK AO2 T10061006
KLUL 160355Z AUTO 00000KT 10SM CLR 00/00 A3029 RMK AO2 T10051005
KLUL 160335Z AUTO 00000KT 10SM CLR 00/00 A3029 RMK AO2 T00030003
KLUL 160315Z AUTO 00000KT 10SM CLR 00/00 A3028 RMK AO2 T00040004
KLUL 160255Z AUTO 00000KT 10SM CLR 01/00 A3028 RMK AO2 T00120002
KLUL 160235Z AUTO 00000KT 10SM CLR 02/00 A3027 RMK AO2 T00150000
KLUL 160215Z AUTO 00000KT 10SM CLR 02/00 A3028 RMK AO2 T00150002
KLUL 160155Z AUTO 00000KT 10SM CLR 02/M01 A3026 RMK AO2 T00181007
KLUL 160135Z AUTO 00000KT 10SM CLR 02/00 A3026 RMK AO2 T00191004
KLUL 160115Z AUTO 00000KT 10SM CLR 03/00 A3027 RMK AO2 T00321005
KLUL 160055Z AUTO 00000KT 10SM CLR 05/M02 A3026 RMK AO2 T00451016
KLUL 160035Z AUTO 00000KT 10SM CLR 05/M01 A3025 RMK AO2 T00451012
KLUL 160015Z AUTO 00000KT 10SM CLR 04/00 A3025 RMK AO2 T00411002
KLUL 152355Z AUTO 00000KT 10SM CLR 05/M01 A3024 RMK AO2 T00451007
KLUL 152335Z AUTO 00000KT 10SM CLR 05/M01 A3024 RMK AO2 T00471009
KLUL 152315Z AUTO 34003KT 10SM CLR 05/M02 A3022 RMK AO2 T00511020
KLUL 152255Z AUTO 36003KT 10SM CLR 05/M02 A3021 RMK AO2 T00541021
KLUL 152235Z AUTO 35003KT 10SM CLR 06/M02 A3023 RMK AO2 T00561024
KLUL 152215Z AUTO 34004KT 10SM CLR 06/M02 A3022 RMK AO2 T00581024
KLUL 152155Z AUTO 35004KT 10SM CLR 06/M02 A3022 RMK AO2 T00601021
KLUL 152135Z AUTO 36003KT 10SM SCT120 06/M02 A3021 RMK AO2 T00601019
KLUL 152115Z AUTO 34004KT 10SM SCT120 06/M02 A3023 RMK AO2 T00601020
KLUL 152055Z AUTO 33005KT 10SM SCT120 06/M02 A3023 RMK AO2 T00611023
KLUL 152035Z AUTO 35008KT 10SM CLR 06/M02 A3022 RMK AO2 T00641022
KLUL 152015Z AUTO 34005KT 10SM SCT120 06/M02 A3021 RMK AO2 T00641023
KLUL 151955Z AUTO 01006KT 10SM SCT120 06/M02 A3021 RMK AO2 T00641023
KLUL 151935Z AUTO 34008KT 10SM SCT120 07/M02 A3022 RMK AO2 T00651022
KLUL 151915Z AUTO 35006KT 10SM SCT120 07/M02 A3023 RMK AO2 T00661018
KLUL 151855Z AUTO 36006KT 10SM SCT120 07/M02 A3024 RMK AO2 T00661023
KLUL 151815Z AUTO 35007KT 10SM BKN120 06/M02 A3025 RMK AO2 T00641021
KLUL 151755Z AUTO 01009KT 10SM OVC120 06/M02 A3026 RMK AO2 T00591024
KLUL 151735Z AUTO 02010KT 10SM SCT120 06/M02 A3026 RMK AO2 T00611020
KLUL 151715Z AUTO 36006KT 10SM SCT120 06/M01 A3028 RMK AO2 T00601015
KLUL 151655Z AUTO 35003KT 10SM BKN120 05/M01 A3029 RMK AO2 T00541013
KLUL 151635Z AUTO 35003KT 10SM BKN120 05/M01 A3029 RMK AO2 T00511014
KLUL 151615Z AUTO 34005KT 10SM SCT120 05/M01 A3028 RMK AO2 T00501010
KLUL 151555Z AUTO 35004KT 10SM CLR 05/M01 A3026 RMK AO2 T00481008
KLUL 151535Z AUTO 35005KT 10SM CLR 05/00 A3026 RMK AO2 T00481003
KLUL 151455Z AUTO 35004KT 10SM CLR 04/00 A3022 RMK AO2 T00431002
KLUL 151435Z AUTO 00000KT 10SM CLR 04/00 A3022 RMK AO2 T00421003
KLUL 151415Z AUTO 36003KT 10SM CLR 04/00 A3021 RMK AO2 T00401001
KLUL 151355Z AUTO 00000KT 10SM CLR 04/00 A3019 RMK AO2 T00360000
KLUL 151335Z AUTO 35003KT 10SM CLR 04/00 A3018 RMK AO2 T00350000
KLUL 151315Z AUTO 36003KT 10SM CLR 03/00 A3017 RMK AO2 T00340001
KLUL 151235Z AUTO 34003KT 10SM CLR 04/00 A3016 RMK AO2 T00370000
KLUL 151215Z AUTO 00000KT 10SM CLR 04/00 A3014 RMK AO2 T00400002
KLUL 151155Z AUTO 35003KT 10SM CLR 04/01 A3013 RMK AO2 T00400008
KLUL 151135Z AUTO 35004KT 10SM CLR 04/01 A3013 RMK AO2 T00400013
KLUL 151115Z AUTO 36003KT 10SM CLR 04/02 A3012 RMK AO2 T00400016
KLUL 151055Z AUTO 34003KT 10SM CLR 04/02 A3011 RMK AO2 T00400023
KLUL 151035Z AUTO 35003KT 10SM CLR 04/02 A3010 RMK AO2 T00410024
KLUL 151015Z AUTO 01005KT 10SM CLR 04/02 A3010 RMK AO2 T00420024
KLUL 150955Z AUTO 35006KT 10SM CLR 05/03 A3010 RMK AO2 T00450025
KLUL 150935Z AUTO 36007KT 10SM CLR 05/03 A3010 RMK AO2 T00460027
KLUL 150915Z AUTO 36004KT 10SM CLR 05/03 A3010 RMK AO2 T00470029
KLUL 150855Z AUTO 35004KT 10SM CLR 05/04 A3010 RMK AO2 T00460039
KLUL 150835Z AUTO 35004KT 10SM CLR 05/04 A3009 RMK AO2 T00460040
KLUL 150815Z AUTO 00000KT 10SM CLR 05/04 A3008 RMK AO2 T00500042
KLUL 150755Z AUTO 36003KT 10SM CLR 05/05 A3008 RMK AO2 T00500045
KLUL 150735Z AUTO 33004KT 10SM CLR 05/05 A3008 RMK AO2 T00470047
KLUL 150715Z AUTO 33003KT 10SM CLR 05/05 A3007 RMK AO2 T00460046
KLUL 150655Z AUTO 00000KT 10SM CLR 05/05 A3006 RMK AO2 T00520052
KLUL 150635Z AUTO 33003KT 10SM CLR 05/05 A3006 RMK AO2 T00500050
KLUL 150615Z AUTO 33004KT 10SM CLR 05/05 A3006 RMK AO2 T00510051
KLUL 150555Z AUTO 30003KT 10SM CLR 04/04 A3006 RMK AO2 T00420042
KLUL 150535Z AUTO 00000KT 10SM CLR 04/04 A3005 RMK AO2 T00400040
KLUL 150515Z AUTO 00000KT 10SM CLR 04/04 A3005 RMK AO2 T00360036
KLUL 150455Z AUTO 00000KT 10SM CLR 04/04 A3006 RMK AO2 T00350035
KLUL 150435Z AUTO 00000KT 10SM CLR 04/04 A3006 RMK AO2 T00430043
KLUL 150415Z AUTO 00000KT 10SM CLR 05/05 A3005 RMK AO2 T00460046
KLUL 150355Z AUTO 00000KT 10SM CLR 05/05 A3005 RMK AO2 T00480048
KLUL 150335Z AUTO 00000KT 10SM CLR 05/05 A3005 RMK AO2 T00490049
KLUL 150315Z AUTO 00000KT 10SM CLR 05/05 A3005 RMK AO2 T00540054
KLUL 150255Z AUTO 00000KT 10SM CLR 06/06 A3005 RMK AO2 T00560056
KLUL 150235Z AUTO 00000KT 10SM CLR 06/06 A3004 RMK AO2 T00630063
KLUL 150215Z AUTO 00000KT 10SM CLR 07/07 A3004 RMK AO2 T00650065
KLUL 150155Z AUTO 00000KT 10SM CLR 07/07 A3003 RMK AO2 T00690069
KLUL 150135Z AUTO 00000KT 10SM CLR 07/07 A3003 RMK AO2 T00720072
KLUL 150115Z AUTO 00000KT 10SM CLR 07/07 A3002 RMK AO2 T00710071
KLUL 150055Z AUTO 00000KT 10SM CLR 08/08 A3002 RMK AO2 T00780078
KLUL 150035Z AUTO 00000KT 10SM CLR 08/06 A3001 RMK AO2 T00840056
KLUL 150015Z AUTO 00000KT 10SM CLR 09/06 A3000 RMK AO2 T00870061
KLUL 142355Z AUTO 00000KT 10SM CLR 08/07 A3000 RMK AO2 T00840065
KLUL 142335Z AUTO 32003KT 10SM CLR 09/06 A3000 RMK AO2 T00880060
KLUL 142315Z AUTO 00000KT 10SM CLR 10/06 A2998 RMK AO2 T00990057
KLUL 142255Z AUTO 00000KT 10SM CLR 10/06 A2998 RMK AO2 T01010059
KLUL 142235Z AUTO 00000KT 10SM CLR 11/06 A2997 RMK AO2 T01140060
KLUL 142215Z AUTO 00000KT 10SM CLR 12/06 A2998 RMK AO2 T01220060
KLUL 142155Z AUTO 00000KT 10SM CLR 13/05 A2997 RMK AO2 T01260053
KLUL 142135Z AUTO 32003KT 10SM CLR 13/05 A2998 RMK AO2 T01340048
KLUL 142115Z AUTO 00000KT 10SM CLR 14/04 A2996 RMK AO2 T01360044
KLUL 142055Z AUTO 00000KT 10SM CLR 14/03 A2996 RMK AO2 T01380033
KLUL 142035Z AUTO 27003KT 10SM CLR 14/03 A2996 RMK AO2 T01410033
KLUL 142015Z AUTO 24003KT 10SM CLR 14/03 A2996 RMK AO2 T01410028
KLUL 141955Z AUTO 00000KT 10SM CLR 14/03 A2996 RMK AO2 T01410029
KLUL 141935Z AUTO 24004KT 10SM CLR 14/03 A2997 RMK AO2 T01410030
KLUL 141915Z AUTO 23003KT 10SM CLR 14/03 A2998 RMK AO2 T01390029
KLUL 141855Z AUTO 22003KT 10SM CLR 14/03 A2998 RMK AO2 T01400028
KLUL 141835Z AUTO 00000KT 10SM CLR 14/03 A2998 RMK AO2 T01360026
KLUL 141815Z AUTO 00000KT 10SM CLR 14/02 A2998 RMK AO2 T01350021
KLUL 141755Z AUTO 00000KT 10SM CLR 14/02 A2999 RMK AO2 T01360024
KLUL 141735Z AUTO 34003KT 10SM CLR 14/02 A3000 RMK AO2 T01380022
KLUL 141715Z AUTO 36003KT 10SM CLR 14/02 A3001 RMK AO2 T01360020
KLUL 141655Z AUTO 28003KT 10SM CLR 13/02 A3002 RMK AO2 T01290019
KLUL 141635Z AUTO 29004KT 10SM CLR 12/02 A3003 RMK AO2 T01210021
KLUL 141615Z AUTO 29005KT 10SM CLR 12/03 A3003 RMK AO2 T01190028
KLUL 141555Z AUTO 26003KT 10SM CLR 10/03 A3003 RMK AO2 T01020032
KLUL 141535Z AUTO 00000KT 10SM CLR 10/03 A3002 RMK AO2 T00950032
KLUL 141515Z AUTO 00000KT 10SM CLR 08/04 A3001 RMK AO2 T00820040
KLUL 141455Z AUTO 00000KT 10SM CLR 07/04 A3001 RMK AO2 T00700043
KLUL 141435Z AUTO 00000KT 10SM CLR 06/04 A3001 RMK AO2 T00570042
KLUL 141415Z AUTO 00000KT 10SM CLR 04/04 A3000 RMK AO2 T00420042
KLUL 141355Z AUTO 00000KT 10SM CLR 02/02 A2998 RMK AO2 T00230023
KLUL 141335Z AUTO 00000KT 10SM CLR 01/01 A2998 RMK AO2 T00130013
KLUL 141315Z AUTO 00000KT 10SM CLR 01/01 A2998 RMK AO2 T00110011
KLUL 141255Z AUTO 00000KT 10SM CLR 02/02 A2998 RMK AO2 T00150015
KLUL 141235Z AUTO 00000KT 10SM CLR 02/02 A2998 RMK AO2 T00150015
KLUL 141215Z AUTO 00000KT 10SM CLR 02/02 A2998 RMK AO2 T00150015
KLUL 141155Z AUTO 00000KT 10SM CLR 02/02 A2998 RMK AO2 T00180018
KLUL 141135Z AUTO 00000KT 10SM CLR 02/02 A2997 RMK AO2 T00160016
KLUL 141115Z AUTO 00000KT 10SM CLR 02/02 A2996 RMK AO2 T00150015
KLUL 141055Z AUTO 00000KT 10SM CLR 02/02 A2996 RMK AO2 T00200020
KLUL 141035Z AUTO 00000KT 10SM CLR 03/03 A2996 RMK AO2 T00250025
KLUL 141015Z AUTO 00000KT 10SM CLR 03/03 A2996 RMK AO2 T00270027
KLUL 140955Z AUTO 00000KT 10SM CLR 02/02 A2996 RMK AO2 T00240024
KLUL 140935Z AUTO 00000KT 10SM CLR 03/03 A2996 RMK AO2 T00300030
KLUL 140915Z AUTO 00000KT 10SM CLR 04/03 A2996 RMK AO2 T00350032
KLUL 140855Z AUTO 00000KT 10SM CLR 03/03 A2996 RMK AO2 T00300027
KLUL 140835Z AUTO 00000KT 10SM CLR 03/03 A2996 RMK AO2 T00300029
KLUL 140815Z AUTO 00000KT 10SM CLR 03/03 A2996 RMK AO2 T00270026
KLUL 140755Z AUTO 00000KT 10SM CLR 04/01 A2996 RMK AO2 T00350009
KLUL 140735Z AUTO 00000KT 10SM CLR 04/01 A2996 RMK AO2 T00360008
KLUL 140715Z AUTO 00000KT 10SM CLR 05/01 A2996 RMK AO2 T00470011
KLUL 140655Z AUTO 00000KT 10SM CLR 04/01 A2996 RMK AO2 T00440012
KLUL 140635Z AUTO 00000KT 10SM CLR 04/01 A2997 RMK AO2 T00420012
KLUL 140615Z AUTO 00000KT 10SM CLR 04/01 A2998 RMK AO2 T00390011
KLUL 140555Z AUTO 00000KT 10SM CLR 05/01 A2998 RMK AO2 T00480005
KLUL 140535Z AUTO 00000KT 10SM CLR 05/00 A2998 RMK AO2 T00510002
KLUL 140515Z AUTO 00000KT 10SM CLR 07/00 A2998 RMK AO2 T00660002
KLUL 140455Z AUTO 00000KT 10SM CLR 07/00 A2998 RMK AO2 T00700001
KLUL 140435Z AUTO 00000KT 10SM CLR 07/00 A2998 RMK AO2 T00720001
KLUL 140415Z AUTO 00000KT 10SM CLR 08/00 A2998 RMK AO2 T00750000
KLUL 140355Z AUTO 00000KT 10SM CLR 07/00 A2998 RMK AO2 T00710000
KLUL 140335Z AUTO 00000KT 10SM CLR 07/00 A2997 RMK AO2 T00720000
KLUL 140315Z AUTO 20003KT 10SM CLR 08/00 A2997 RMK AO2 T00760000
KLUL 140255Z AUTO 00000KT 10SM CLR 08/00 A2997 RMK AO2 T00761001
KLUL 140235Z AUTO 21003KT 10SM CLR 08/00 A2997 RMK AO2 T00821001
KLUL 140215Z AUTO 22004KT 10SM CLR 09/00 A2997 RMK AO2 T00851002
KLUL 140155Z AUTO 22004KT 10SM CLR 09/00 A2998 RMK AO2 T00871003
KLUL 140135Z AUTO 23004KT 10SM CLR 08/00 A2998 RMK AO2 T00831004
KLUL 140115Z AUTO 22004KT 10SM CLR 09/00 A2997 RMK AO2 T00901003
KLUL 140055Z AUTO 21005KT 10SM CLR 09/00 A2997 RMK AO2 T00901002
KLUL 140035Z AUTO 21004KT 10SM CLR 09/00 A2997 RMK AO2 T00931002
KLUL 140015Z AUTO 21005KT 10SM CLR 10/00 A2997 RMK AO2 T00971004
KLUL 132355Z AUTO 21004KT 10SM CLR 10/M01 A2998 RMK AO2 T01031009
KLUL 132335Z AUTO 21004KT 10SM CLR 11/M01 A2999 RMK AO2 T01051014
KLUL 132315Z AUTO 21003KT 10SM CLR 11/M01 A3000 RMK AO2 T01081015
KLUL 132255Z AUTO 23004KT 10SM CLR 11/M01 A3000 RMK AO2 T01061015
KLUL 132235Z AUTO 23004KT 10SM CLR 12/M02 A3000 RMK AO2 T01241019
KLUL 132215Z AUTO 20006KT 10SM CLR 13/M02 A3000 RMK AO2 T01321024
KLUL 132155Z AUTO 20009KT 10SM CLR 14/M03 A3001 RMK AO2 T01361028
KLUL 132135Z AUTO 22009G14KT 10SM CLR 14/M03 A3001 RMK AO2 T01381032
KLUL 132115Z AUTO 22008KT 10SM CLR 14/M04 A3001 RMK AO2 T01411036
KLUL 132055Z AUTO 22013KT 10SM CLR 14/M04 A3002 RMK AO2 T01401044
KLUL 132035Z AUTO 23011KT 10SM CLR 14/M04 A3003 RMK AO2 T01411045
KLUL 132015Z AUTO 24010G14KT 10SM CLR 14/M04 A3003 RMK AO2 T01431045
KLUL 131955Z AUTO 22008G16KT 10SM CLR 15/M04 A3003 RMK AO2 T01451044
KLUL 131935Z AUTO 22009KT 10SM CLR 14/M04 A3004 RMK AO2 T01431041
KLUL 131915Z AUTO 22010G16KT 10SM CLR 14/M04 A3006 RMK AO2 T01361042
KLUL 131855Z AUTO 22006G15KT 10SM CLR 13/M04 A3007 RMK AO2 T01311044